sensor_id;sensor_type;location;lat;lon;timestamp;P1;durP1;ratioP1;P2;durP2;ratioP2
24030;SDS011;12240;51.142;22.486;2022-08-19T00:00:08;16.30;;;9.45;;
24030;SDS011;12240;51.142;22.486;2022-08-19T00:02:39;18.48;;;10.30;;
24030;SDS011;12240;51.142;22.486;2022-08-19T00:05:16;16.17;;;10.45;;
24030;SDS011;12240;51.142;22.486;2022-08-19T00:07:48;15.48;;;10.38;;
24030;SDS011;12240;51.142;22.486;2022-08-19T00:10:17;20.45;;;11.18;;
24030;SDS011;12240;51.142;22.486;2022-08-19T00:12:47;18.10;;;11.00;;
24030;SDS011;12240;51.142;22.486;2022-08-19T00:15:16;20.80;;;11.48;;
24030;SDS011;12240;51.142;22.486;2022-08-19T00:17:46;19.13;;;11.02;;
24030;SDS011;12240;51.142;22.486;2022-08-19T00:20:17;17.60;;;11.35;;
24030;SDS011;12240;51.142;22.486;2022-08-19T00:22:48;19.83;;;11.35;;
24030;SDS011;12240;51.142;22.486;2022-08-19T00:25:16;19.70;;;12.02;;
24030;SDS011;12240;51.142;22.486;2022-08-19T00:27:56;17.20;;;11.48;;
24030;SDS011;12240;51.142;22.486;2022-08-19T00:30:27;20.00;;;11.30;;
24030;SDS011;12240;51.142;22.486;2022-08-19T00:32:56;18.95;;;11.85;;
24030;SDS011;12240;51.142;22.486;2022-08-19T00:35:24;23.00;;;12.25;;
24030;SDS011;12240;51.142;22.486;2022-08-19T00:37:54;21.73;;;11.90;;
24030;SDS011;12240;51.142;22.486;2022-08-19T00:40:23;23.45;;;11.38;;
24030;SDS011;12240;51.142;22.486;2022-08-19T00:42:52;19.92;;;10.63;;
24030;SDS011;12240;51.142;22.486;2022-08-19T00:45:24;18.25;;;10.45;;
24030;SDS011;12240;51.142;22.486;2022-08-19T00:47:58;21.25;;;10.73;;
24030;SDS011;12240;51.142;22.486;2022-08-19T00:50:31;18.80;;;9.90;;
24030;SDS011;12240;51.142;22.486;2022-08-19T00:53:00;17.40;;;10.18;;
24030;SDS011;12240;51.142;22.486;2022-08-19T00:55:32;17.92;;;10.20;;
24030;SDS011;12240;51.142;22.486;2022-08-19T00:58:02;17.83;;;10.35;;
24030;SDS011;12240;51.142;22.486;2022-08-19T01:00:37;16.55;;;10.43;;
24030;SDS011;12240;51.142;22.486;2022-08-19T01:03:06;22.25;;;10.82;;
24030;SDS011;12240;51.142;22.486;2022-08-19T01:05:38;18.77;;;9.90;;
24030;SDS011;12240;51.142;22.486;2022-08-19T01:08:10;16.02;;;9.43;;
24030;SDS011;12240;51.142;22.486;2022-08-19T01:10:48;16.70;;;9.63;;
24030;SDS011;12240;51.142;22.486;2022-08-19T01:13:24;16.10;;;10.45;;
24030;SDS011;12240;51.142;22.486;2022-08-19T01:16:15;19.13;;;9.80;;
24030;SDS011;12240;51.142;22.486;2022-08-19T01:18:46;16.42;;;9.80;;
24030;SDS011;12240;51.142;22.486;2022-08-19T01:21:25;16.75;;;9.15;;
24030;SDS011;12240;51.142;22.486;2022-08-19T01:24:05;13.02;;;9.38;;
24030;SDS011;12240;51.142;22.486;2022-08-19T01:26:37;16.17;;;9.57;;
24030;SDS011;12240;51.142;22.486;2022-08-19T01:29:12;15.15;;;9.40;;
24030;SDS011;12240;51.142;22.486;2022-08-19T01:31:41;15.13;;;9.48;;
24030;SDS011;12240;51.142;22.486;2022-08-19T01:34:09;12.07;;;8.40;;
24030;SDS011;12240;51.142;22.486;2022-08-19T01:36:47;17.05;;;9.40;;
24030;SDS011;12240;51.142;22.486;2022-08-19T01:39:18;16.90;;;9.77;;
24030;SDS011;12240;51.142;22.486;2022-08-19T01:41:51;20.42;;;10.02;;
24030;SDS011;12240;51.142;22.486;2022-08-19T01:44:21;18.42;;;10.23;;
24030;SDS011;12240;51.142;22.486;2022-08-19T01:46:51;13.75;;;9.85;;
24030;SDS011;12240;51.142;22.486;2022-08-19T01:49:20;19.85;;;10.07;;
24030;SDS011;12240;51.142;22.486;2022-08-19T01:51:52;19.27;;;10.43;;
24030;SDS011;12240;51.142;22.486;2022-08-19T01:54:22;14.98;;;10.02;;
24030;SDS011;12240;51.142;22.486;2022-08-19T01:56:56;17.52;;;9.98;;
24030;SDS011;12240;51.142;22.486;2022-08-19T02:02:04;22.52;;;10.75;;
24030;SDS011;12240;51.142;22.486;2022-08-19T02:04:36;16.33;;;10.57;;
24030;SDS011;12240;51.142;22.486;2022-08-19T02:07:06;16.05;;;10.95;;
24030;SDS011;12240;51.142;22.486;2022-08-19T02:09:35;15.20;;;9.77;;
24030;SDS011;12240;51.142;22.486;2022-08-19T02:12:04;15.20;;;9.93;;
24030;SDS011;12240;51.142;22.486;2022-08-19T02:14:35;17.33;;;9.75;;
24030;SDS011;12240;51.142;22.486;2022-08-19T02:17:04;15.13;;;9.43;;
24030;SDS011;12240;51.142;22.486;2022-08-19T02:19:32;16.75;;;9.43;;
24030;SDS011;12240;51.142;22.486;2022-08-19T02:22:00;17.92;;;9.43;;
24030;SDS011;12240;51.142;22.486;2022-08-19T02:24:28;16.20;;;9.27;;
24030;SDS011;12240;51.142;22.486;2022-08-19T02:26:56;16.42;;;9.40;;
24030;SDS011;12240;51.142;22.486;2022-08-19T02:29:25;12.80;;;8.88;;
24030;SDS011;12240;51.142;22.486;2022-08-19T02:31:55;12.18;;;8.60;;
24030;SDS011;12240;51.142;22.486;2022-08-19T02:34:23;15.90;;;8.27;;
24030;SDS011;12240;51.142;22.486;2022-08-19T02:36:52;14.68;;;9.27;;
24030;SDS011;12240;51.142;22.486;2022-08-19T02:39:20;20.38;;;9.98;;
24030;SDS011;12240;51.142;22.486;2022-08-19T02:41:48;15.32;;;9.70;;
24030;SDS011;12240;51.142;22.486;2022-08-19T02:44:17;13.93;;;8.75;;
24030;SDS011;12240;51.142;22.486;2022-08-19T02:46:57;14.27;;;9.90;;
24030;SDS011;12240;51.142;22.486;2022-08-19T02:49:26;16.60;;;10.02;;
24030;SDS011;12240;51.142;22.486;2022-08-19T02:51:54;16.73;;;10.27;;
24030;SDS011;12240;51.142;22.486;2022-08-19T02:54:22;14.68;;;9.48;;
24030;SDS011;12240;51.142;22.486;2022-08-19T02:56:51;13.52;;;8.95;;
24030;SDS011;12240;51.142;22.486;2022-08-19T02:59:19;19.52;;;10.10;;
24030;SDS011;12240;51.142;22.486;2022-08-19T03:01:49;15.27;;;8.57;;
24030;SDS011;12240;51.142;22.486;2022-08-19T03:04:17;12.05;;;9.23;;
24030;SDS011;12240;51.142;22.486;2022-08-19T03:06:47;10.80;;;7.80;;
24030;SDS011;12240;51.142;22.486;2022-08-19T03:09:16;17.75;;;8.32;;
24030;SDS011;12240;51.142;22.486;2022-08-19T03:11:46;14.85;;;7.85;;
24030;SDS011;12240;51.142;22.486;2022-08-19T03:14:18;11.80;;;8.25;;
24030;SDS011;12240;51.142;22.486;2022-08-19T03:16:47;12.65;;;8.20;;
24030;SDS011;12240;51.142;22.486;2022-08-19T03:19:19;14.75;;;8.57;;
24030;SDS011;12240;51.142;22.486;2022-08-19T03:21:48;11.70;;;9.00;;
24030;SDS011;12240;51.142;22.486;2022-08-19T03:24:18;15.85;;;7.85;;
24030;SDS011;12240;51.142;22.486;2022-08-19T03:26:48;16.20;;;8.98;;
24030;SDS011;12240;51.142;22.486;2022-08-19T03:29:20;15.57;;;8.40;;
24030;SDS011;12240;51.142;22.486;2022-08-19T03:32:00;11.02;;;8.13;;
24030;SDS011;12240;51.142;22.486;2022-08-19T03:34:33;16.30;;;8.77;;
24030;SDS011;12240;51.142;22.486;2022-08-19T03:37:04;17.35;;;8.68;;
24030;SDS011;12240;51.142;22.486;2022-08-19T03:39:39;12.00;;;8.27;;
24030;SDS011;12240;51.142;22.486;2022-08-19T03:42:09;14.15;;;8.30;;
24030;SDS011;12240;51.142;22.486;2022-08-19T03:44:58;16.50;;;8.55;;
24030;SDS011;12240;51.142;22.486;2022-08-19T03:47:26;13.23;;;7.97;;
24030;SDS011;12240;51.142;22.486;2022-08-19T03:49:54;15.25;;;7.78;;
24030;SDS011;12240;51.142;22.486;2022-08-19T03:52:22;10.85;;;7.80;;
24030;SDS011;12240;51.142;22.486;2022-08-19T03:54:50;11.73;;;7.95;;
24030;SDS011;12240;51.142;22.486;2022-08-19T03:57:18;13.30;;;8.13;;
24030;SDS011;12240;51.142;22.486;2022-08-19T03:59:51;13.88;;;8.40;;
24030;SDS011;12240;51.142;22.486;2022-08-19T04:02:19;13.50;;;7.97;;
24030;SDS011;12240;51.142;22.486;2022-08-19T04:04:48;14.15;;;9.02;;
24030;SDS011;12240;51.142;22.486;2022-08-19T04:07:20;19.60;;;8.80;;
24030;SDS011;12240;51.142;22.486;2022-08-19T04:09:48;14.52;;;9.27;;
24030;SDS011;12240;51.142;22.486;2022-08-19T04:12:17;12.27;;;8.52;;
24030;SDS011;12240;51.142;22.486;2022-08-19T04:14:47;15.63;;;8.90;;
24030;SDS011;12240;51.142;22.486;2022-08-19T04:17:15;15.43;;;8.68;;
24030;SDS011;12240;51.142;22.486;2022-08-19T04:19:43;13.80;;;8.07;;
24030;SDS011;12240;51.142;22.486;2022-08-19T04:22:11;13.20;;;8.30;;
24030;SDS011;12240;51.142;22.486;2022-08-19T04:24:40;18.08;;;8.93;;
24030;SDS011;12240;51.142;22.486;2022-08-19T04:27:08;15.75;;;8.73;;
24030;SDS011;12240;51.142;22.486;2022-08-19T04:29:36;14.20;;;8.50;;
24030;SDS011;12240;51.142;22.486;2022-08-19T04:32:06;13.25;;;8.00;;
24030;SDS011;12240;51.142;22.486;2022-08-19T04:34:36;13.85;;;8.52;;
24030;SDS011;12240;51.142;22.486;2022-08-19T04:37:25;13.57;;;8.75;;
24030;SDS011;12240;51.142;22.486;2022-08-19T04:40:02;15.15;;;8.27;;
24030;SDS011;12240;51.142;22.486;2022-08-19T04:42:52;11.68;;;8.23;;
24030;SDS011;12240;51.142;22.486;2022-08-19T04:45:21;14.02;;;8.68;;
24030;SDS011;12240;51.142;22.486;2022-08-19T04:47:49;13.35;;;7.97;;
24030;SDS011;12240;51.142;22.486;2022-08-19T04:50:25;15.98;;;7.45;;
24030;SDS011;12240;51.142;22.486;2022-08-19T04:52:56;15.95;;;7.72;;
24030;SDS011;12240;51.142;22.486;2022-08-19T04:55:24;13.32;;;7.55;;
24030;SDS011;12240;51.142;22.486;2022-08-19T04:57:55;14.32;;;7.55;;
24030;SDS011;12240;51.142;22.486;2022-08-19T05:00:23;13.18;;;7.10;;
24030;SDS011;12240;51.142;22.486;2022-08-19T05:02:51;15.63;;;7.70;;
24030;SDS011;12240;51.142;22.486;2022-08-19T05:05:20;10.93;;;6.80;;
24030;SDS011;12240;51.142;22.486;2022-08-19T05:07:48;12.07;;;7.70;;
24030;SDS011;12240;51.142;22.486;2022-08-19T05:10:16;18.40;;;7.35;;
24030;SDS011;12240;51.142;22.486;2022-08-19T05:12:45;10.50;;;7.00;;
24030;SDS011;12240;51.142;22.486;2022-08-19T05:15:13;17.95;;;8.15;;
24030;SDS011;12240;51.142;22.486;2022-08-19T05:17:41;13.55;;;8.35;;
24030;SDS011;12240;51.142;22.486;2022-08-19T05:20:29;15.48;;;7.78;;
24030;SDS011;12240;51.142;22.486;2022-08-19T05:23:17;13.55;;;8.13;;
24030;SDS011;12240;51.142;22.486;2022-08-19T05:25:49;11.13;;;7.38;;
24030;SDS011;12240;51.142;22.486;2022-08-19T05:28:19;13.95;;;7.63;;
24030;SDS011;12240;51.142;22.486;2022-08-19T05:30:48;17.33;;;8.32;;
24030;SDS011;12240;51.142;22.486;2022-08-19T05:33:18;14.13;;;7.53;;
24030;SDS011;12240;51.142;22.486;2022-08-19T05:35:47;13.50;;;7.65;;
24030;SDS011;12240;51.142;22.486;2022-08-19T05:38:17;13.68;;;7.25;;
24030;SDS011;12240;51.142;22.486;2022-08-19T05:40:45;11.60;;;7.25;;
24030;SDS011;12240;51.142;22.486;2022-08-19T05:43:16;11.38;;;7.47;;
24030;SDS011;12240;51.142;22.486;2022-08-19T05:45:45;11.15;;;7.50;;
24030;SDS011;12240;51.142;22.486;2022-08-19T05:48:14;10.93;;;7.40;;
24030;SDS011;12240;51.142;22.486;2022-08-19T05:50:44;13.13;;;8.47;;
24030;SDS011;12240;51.142;22.486;2022-08-19T05:53:12;12.07;;;7.38;;
24030;SDS011;12240;51.142;22.486;2022-08-19T05:55:43;15.05;;;6.97;;
24030;SDS011;12240;51.142;22.486;2022-08-19T05:58:11;19.30;;;7.50;;
24030;SDS011;12240;51.142;22.486;2022-08-19T06:00:39;12.25;;;7.45;;
24030;SDS011;12240;51.142;22.486;2022-08-19T06:03:11;11.63;;;7.07;;
24030;SDS011;12240;51.142;22.486;2022-08-19T06:05:39;14.07;;;7.28;;
24030;SDS011;12240;51.142;22.486;2022-08-19T06:08:18;12.38;;;7.15;;
24030;SDS011;12240;51.142;22.486;2022-08-19T06:11:12;10.65;;;7.07;;
24030;SDS011;12240;51.142;22.486;2022-08-19T06:14:01;14.57;;;7.45;;
24030;SDS011;12240;51.142;22.486;2022-08-19T06:16:42;10.45;;;6.93;;
24030;SDS011;12240;51.142;22.486;2022-08-19T06:19:13;12.00;;;6.70;;
24030;SDS011;12240;51.142;22.486;2022-08-19T06:21:44;11.55;;;6.70;;
24030;SDS011;12240;51.142;22.486;2022-08-19T06:29:30;19.38;;;7.00;;
24030;SDS011;12240;51.142;22.486;2022-08-19T06:32:28;19.38;;;6.93;;
24030;SDS011;12240;51.142;22.486;2022-08-19T06:34:57;15.15;;;6.50;;
24030;SDS011;12240;51.142;22.486;2022-08-19T06:37:25;12.27;;;6.00;;
24030;SDS011;12240;51.142;22.486;2022-08-19T06:39:53;10.77;;;6.13;;
24030;SDS011;12240;51.142;22.486;2022-08-19T06:42:21;10.80;;;6.35;;
24030;SDS011;12240;51.142;22.486;2022-08-19T06:44:50;9.38;;;5.72;;
24030;SDS011;12240;51.142;22.486;2022-08-19T06:47:20;11.57;;;6.03;;
24030;SDS011;12240;51.142;22.486;2022-08-19T06:49:53;12.45;;;5.93;;
24030;SDS011;12240;51.142;22.486;2022-08-19T06:52:30;13.23;;;5.93;;
24030;SDS011;12240;51.142;22.486;2022-08-19T06:55:07;16.48;;;6.82;;
24030;SDS011;12240;51.142;22.486;2022-08-19T06:57:35;8.90;;;6.50;;
24030;SDS011;12240;51.142;22.486;2022-08-19T07:00:05;15.77;;;6.78;;
24030;SDS011;12240;51.142;22.486;2022-08-19T07:02:40;10.10;;;5.90;;
24030;SDS011;12240;51.142;22.486;2022-08-19T07:05:23;11.77;;;6.50;;
24030;SDS011;12240;51.142;22.486;2022-08-19T07:07:51;9.68;;;5.75;;
24030;SDS011;12240;51.142;22.486;2022-08-19T07:10:24;13.90;;;6.03;;
24030;SDS011;12240;51.142;22.486;2022-08-19T07:12:52;9.02;;;6.18;;
24030;SDS011;12240;51.142;22.486;2022-08-19T07:15:21;18.55;;;6.93;;
24030;SDS011;12240;51.142;22.486;2022-08-19T07:17:50;15.07;;;6.40;;
24030;SDS011;12240;51.142;22.486;2022-08-19T07:20:19;17.92;;;6.53;;
24030;SDS011;12240;51.142;22.486;2022-08-19T07:22:47;11.15;;;5.13;;
24030;SDS011;12240;51.142;22.486;2022-08-19T07:25:16;10.55;;;5.50;;
24030;SDS011;12240;51.142;22.486;2022-08-19T07:27:48;13.35;;;5.57;;
24030;SDS011;12240;51.142;22.486;2022-08-19T07:30:20;11.90;;;6.15;;
24030;SDS011;12240;51.142;22.486;2022-08-19T07:32:52;9.27;;;5.68;;
24030;SDS011;12240;51.142;22.486;2022-08-19T07:38:24;17.95;;;6.28;;
24030;SDS011;12240;51.142;22.486;2022-08-19T07:40:53;8.82;;;4.85;;
24030;SDS011;12240;51.142;22.486;2022-08-19T07:43:21;10.32;;;5.38;;
24030;SDS011;12240;51.142;22.486;2022-08-19T07:46:01;11.45;;;5.45;;
24030;SDS011;12240;51.142;22.486;2022-08-19T07:48:29;11.52;;;5.32;;
24030;SDS011;12240;51.142;22.486;2022-08-19T07:50:58;9.70;;;4.90;;
24030;SDS011;12240;51.142;22.486;2022-08-19T07:53:31;10.32;;;5.40;;
24030;SDS011;12240;51.142;22.486;2022-08-19T07:56:05;6.68;;;4.72;;
24030;SDS011;12240;51.142;22.486;2022-08-19T07:58:35;17.20;;;5.82;;
24030;SDS011;12240;51.142;22.486;2022-08-19T08:01:08;14.43;;;5.50;;
24030;SDS011;12240;51.142;22.486;2022-08-19T08:03:46;13.45;;;5.50;;
24030;SDS011;12240;51.142;22.486;2022-08-19T08:06:37;8.30;;;5.55;;
24030;SDS011;12240;51.142;22.486;2022-08-19T08:09:43;11.25;;;5.45;;
24030;SDS011;12240;51.142;22.486;2022-08-19T08:12:18;15.90;;;5.18;;
24030;SDS011;12240;51.142;22.486;2022-08-19T08:15:07;8.10;;;5.28;;
24030;SDS011;12240;51.142;22.486;2022-08-19T08:17:51;11.45;;;5.50;;
24030;SDS011;12240;51.142;22.486;2022-08-19T08:20:19;15.23;;;6.05;;
24030;SDS011;12240;51.142;22.486;2022-08-19T08:22:47;11.88;;;4.95;;
24030;SDS011;12240;51.142;22.486;2022-08-19T08:25:35;14.10;;;4.93;;
24030;SDS011;12240;51.142;22.486;2022-08-19T08:28:04;10.57;;;5.03;;
24030;SDS011;12240;51.142;22.486;2022-08-19T08:30:37;16.48;;;5.07;;
24030;SDS011;12240;51.142;22.486;2022-08-19T08:33:11;16.75;;;5.47;;
24030;SDS011;12240;51.142;22.486;2022-08-19T08:35:40;12.38;;;5.13;;
24030;SDS011;12240;51.142;22.486;2022-08-19T08:38:09;10.35;;;5.22;;
24030;SDS011;12240;51.142;22.486;2022-08-19T08:40:48;12.43;;;5.30;;
24030;SDS011;12240;51.142;22.486;2022-08-19T08:43:38;10.35;;;4.30;;
24030;SDS011;12240;51.142;22.486;2022-08-19T08:51:42;13.45;;;4.70;;
24030;SDS011;12240;51.142;22.486;2022-08-19T08:54:43;10.90;;;4.63;;
24030;SDS011;12240;51.142;22.486;2022-08-19T09:00:27;11.07;;;4.07;;
24030;SDS011;12240;51.142;22.486;2022-08-19T09:03:19;8.43;;;4.53;;
24030;SDS011;12240;51.142;22.486;2022-08-19T09:08:40;7.95;;;4.03;;
24030;SDS011;12240;51.142;22.486;2022-08-19T09:17:29;7.72;;;4.20;;
24030;SDS011;12240;51.142;22.486;2022-08-19T09:22:37;11.10;;;3.92;;
24030;SDS011;12240;51.142;22.486;2022-08-19T09:25:07;8.68;;;4.25;;
24030;SDS011;12240;51.142;22.486;2022-08-19T09:27:39;15.82;;;4.28;;
24030;SDS011;12240;51.142;22.486;2022-08-19T09:30:17;11.25;;;3.72;;
24030;SDS011;12240;51.142;22.486;2022-08-19T09:32:52;10.77;;;3.72;;
24030;SDS011;12240;51.142;22.486;2022-08-19T09:35:24;13.60;;;4.22;;
24030;SDS011;12240;51.142;22.486;2022-08-19T09:37:57;14.18;;;4.30;;
24030;SDS011;12240;51.142;22.486;2022-08-19T09:40:27;6.68;;;3.28;;
24030;SDS011;12240;51.142;22.486;2022-08-19T09:43:01;13.25;;;3.80;;
24030;SDS011;12240;51.142;22.486;2022-08-19T09:45:39;11.95;;;4.00;;
24030;SDS011;12240;51.142;22.486;2022-08-19T09:48:07;11.55;;;4.07;;
24030;SDS011;12240;51.142;22.486;2022-08-19T09:50:37;10.25;;;3.85;;
24030;SDS011;12240;51.142;22.486;2022-08-19T09:53:18;9.38;;;3.85;;
24030;SDS011;12240;51.142;22.486;2022-08-19T09:55:52;9.40;;;3.70;;
24030;SDS011;12240;51.142;22.486;2022-08-19T09:58:22;9.77;;;4.00;;
24030;SDS011;12240;51.142;22.486;2022-08-19T10:00:55;10.45;;;4.13;;
24030;SDS011;12240;51.142;22.486;2022-08-19T10:05:57;9.02;;;3.70;;
24030;SDS011;12240;51.142;22.486;2022-08-19T10:08:30;9.63;;;4.55;;
24030;SDS011;12240;51.142;22.486;2022-08-19T10:11:02;10.52;;;3.25;;
24030;SDS011;12240;51.142;22.486;2022-08-19T10:13:52;10.43;;;3.80;;
24030;SDS011;12240;51.142;22.486;2022-08-19T10:16:21;13.35;;;3.58;;
24030;SDS011;12240;51.142;22.486;2022-08-19T10:18:56;11.75;;;3.97;;
24030;SDS011;12240;51.142;22.486;2022-08-19T10:21:26;9.63;;;3.50;;
24030;SDS011;12240;51.142;22.486;2022-08-19T10:23:59;13.77;;;3.70;;
24030;SDS011;12240;51.142;22.486;2022-08-19T10:26:33;10.27;;;4.10;;
24030;SDS011;12240;51.142;22.486;2022-08-19T10:29:04;6.85;;;3.60;;
24030;SDS011;12240;51.142;22.486;2022-08-19T10:31:35;13.13;;;4.00;;
24030;SDS011;12240;51.142;22.486;2022-08-19T10:34:24;13.10;;;3.83;;
24030;SDS011;12240;51.142;22.486;2022-08-19T10:36:55;12.48;;;4.05;;
24030;SDS011;12240;51.142;22.486;2022-08-19T10:39:31;7.25;;;3.80;;
24030;SDS011;12240;51.142;22.486;2022-08-19T10:42:09;10.15;;;3.67;;
24030;SDS011;12240;51.142;22.486;2022-08-19T10:47:08;9.70;;;3.35;;
24030;SDS011;12240;51.142;22.486;2022-08-19T10:49:51;12.50;;;3.83;;
24030;SDS011;12240;51.142;22.486;2022-08-19T10:52:40;10.75;;;3.90;;
24030;SDS011;12240;51.142;22.486;2022-08-19T10:55:17;15.45;;;3.85;;
24030;SDS011;12240;51.142;22.486;2022-08-19T10:58:15;15.10;;;4.25;;
24030;SDS011;12240;51.142;22.486;2022-08-19T11:00:52;7.20;;;4.07;;
24030;SDS011;12240;51.142;22.486;2022-08-19T11:03:26;9.77;;;3.35;;
24030;SDS011;12240;51.142;22.486;2022-08-19T11:06:02;9.82;;;3.70;;
24030;SDS011;12240;51.142;22.486;2022-08-19T11:08:34;11.35;;;3.97;;
24030;SDS011;12240;51.142;22.486;2022-08-19T11:13:35;12.93;;;4.30;;
24030;SDS011;12240;51.142;22.486;2022-08-19T11:16:07;8.32;;;3.70;;
24030;SDS011;12240;51.142;22.486;2022-08-19T11:18:44;9.23;;;3.80;;
24030;SDS011;12240;51.142;22.486;2022-08-19T11:21:18;9.02;;;4.03;;
24030;SDS011;12240;51.142;22.486;2022-08-19T11:23:49;8.10;;;4.03;;
24030;SDS011;12240;51.142;22.486;2022-08-19T11:26:21;7.75;;;3.60;;
24030;SDS011;12240;51.142;22.486;2022-08-19T11:28:52;8.70;;;3.35;;
24030;SDS011;12240;51.142;22.486;2022-08-19T11:31:26;10.27;;;3.33;;
24030;SDS011;12240;51.142;22.486;2022-08-19T11:33:58;11.07;;;3.70;;
24030;SDS011;12240;51.142;22.486;2022-08-19T11:36:30;6.90;;;3.72;;
24030;SDS011;12240;51.142;22.486;2022-08-19T11:39:04;8.15;;;3.45;;
24030;SDS011;12240;51.142;22.486;2022-08-19T11:41:33;7.05;;;3.47;;
24030;SDS011;12240;51.142;22.486;2022-08-19T11:44:02;14.50;;;3.53;;
24030;SDS011;12240;51.142;22.486;2022-08-19T11:46:31;7.18;;;3.85;;
24030;SDS011;12240;51.142;22.486;2022-08-19T11:49:00;15.52;;;3.75;;
24030;SDS011;12240;51.142;22.486;2022-08-19T11:51:30;9.65;;;3.90;;
24030;SDS011;12240;51.142;22.486;2022-08-19T11:53:59;7.07;;;3.28;;
24030;SDS011;12240;51.142;22.486;2022-08-19T11:56:29;9.82;;;3.80;;
24030;SDS011;12240;51.142;22.486;2022-08-19T11:58:57;9.70;;;3.83;;
24030;SDS011;12240;51.142;22.486;2022-08-19T12:01:26;9.25;;;3.50;;
24030;SDS011;12240;51.142;22.486;2022-08-19T12:03:55;7.75;;;3.42;;
24030;SDS011;12240;51.142;22.486;2022-08-19T12:06:25;11.25;;;3.70;;
24030;SDS011;12240;51.142;22.486;2022-08-19T12:08:59;7.47;;;3.40;;
24030;SDS011;12240;51.142;22.486;2022-08-19T12:11:31;6.43;;;3.65;;
24030;SDS011;12240;51.142;22.486;2022-08-19T12:14:00;7.78;;;3.72;;
24030;SDS011;12240;51.142;22.486;2022-08-19T12:16:29;6.63;;;3.55;;
24030;SDS011;12240;51.142;22.486;2022-08-19T12:21:32;6.93;;;3.70;;
24030;SDS011;12240;51.142;22.486;2022-08-19T12:24:03;6.40;;;3.75;;
24030;SDS011;12240;51.142;22.486;2022-08-19T12:26:33;11.00;;;3.80;;
24030;SDS011;12240;51.142;22.486;2022-08-19T12:29:20;7.03;;;3.92;;
24030;SDS011;12240;51.142;22.486;2022-08-19T12:31:50;9.10;;;3.80;;
24030;SDS011;12240;51.142;22.486;2022-08-19T12:34:18;7.57;;;3.83;;
24030;SDS011;12240;51.142;22.486;2022-08-19T12:36:47;7.18;;;3.50;;
24030;SDS011;12240;51.142;22.486;2022-08-19T12:39:17;7.22;;;3.53;;
24030;SDS011;12240;51.142;22.486;2022-08-19T12:41:45;8.93;;;3.85;;
24030;SDS011;12240;51.142;22.486;2022-08-19T12:44:21;5.88;;;3.42;;
24030;SDS011;12240;51.142;22.486;2022-08-19T12:46:58;11.65;;;3.92;;
24030;SDS011;12240;51.142;22.486;2022-08-19T12:49:27;7.95;;;3.70;;
24030;SDS011;12240;51.142;22.486;2022-08-19T12:52:16;7.38;;;3.78;;
24030;SDS011;12240;51.142;22.486;2022-08-19T12:54:50;6.85;;;3.90;;
24030;SDS011;12240;51.142;22.486;2022-08-19T12:57:24;6.75;;;4.00;;
24030;SDS011;12240;51.142;22.486;2022-08-19T13:00:07;8.98;;;3.67;;
24030;SDS011;12240;51.142;22.486;2022-08-19T13:02:49;8.70;;;4.43;;
24030;SDS011;12240;51.142;22.486;2022-08-19T13:05:20;4.03;;;3.25;;
24030;SDS011;12240;51.142;22.486;2022-08-19T13:07:52;8.90;;;4.30;;
24030;SDS011;12240;51.142;22.486;2022-08-19T13:10:28;6.72;;;4.10;;
24030;SDS011;12240;51.142;22.486;2022-08-19T13:13:04;9.80;;;3.92;;
24030;SDS011;12240;51.142;22.486;2022-08-19T13:15:35;10.00;;;3.95;;
24030;SDS011;12240;51.142;22.486;2022-08-19T13:18:07;6.72;;;3.53;;
24030;SDS011;12240;51.142;22.486;2022-08-19T13:20:38;8.23;;;3.78;;
24030;SDS011;12240;51.142;22.486;2022-08-19T13:23:08;7.70;;;3.78;;
24030;SDS011;12240;51.142;22.486;2022-08-19T13:25:36;8.52;;;3.60;;
24030;SDS011;12240;51.142;22.486;2022-08-19T13:28:04;6.93;;;3.65;;
24030;SDS011;12240;51.142;22.486;2022-08-19T13:30:33;8.95;;;3.65;;
24030;SDS011;12240;51.142;22.486;2022-08-19T13:33:20;7.95;;;3.83;;
24030;SDS011;12240;51.142;22.486;2022-08-19T13:35:56;8.70;;;3.38;;
24030;SDS011;12240;51.142;22.486;2022-08-19T13:38:28;10.73;;;3.67;;
24030;SDS011;12240;51.142;22.486;2022-08-19T13:40:57;7.85;;;3.70;;
24030;SDS011;12240;51.142;22.486;2022-08-19T13:43:37;7.93;;;3.78;;
24030;SDS011;12240;51.142;22.486;2022-08-19T13:46:08;7.03;;;3.47;;
24030;SDS011;12240;51.142;22.486;2022-08-19T13:48:41;5.05;;;3.35;;
24030;SDS011;12240;51.142;22.486;2022-08-19T13:51:09;8.25;;;3.88;;
24030;SDS011;12240;51.142;22.486;2022-08-19T13:53:38;13.18;;;4.00;;
24030;SDS011;12240;51.142;22.486;2022-08-19T13:56:15;5.80;;;3.50;;
24030;SDS011;12240;51.142;22.486;2022-08-19T13:58:52;5.15;;;3.47;;
24030;SDS011;12240;51.142;22.486;2022-08-19T14:01:25;7.20;;;3.17;;
24030;SDS011;12240;51.142;22.486;2022-08-19T14:03:53;8.20;;;3.65;;
24030;SDS011;12240;51.142;22.486;2022-08-19T14:06:21;10.27;;;3.75;;
24030;SDS011;12240;51.142;22.486;2022-08-19T14:08:50;5.90;;;3.13;;
24030;SDS011;12240;51.142;22.486;2022-08-19T14:11:19;4.80;;;3.17;;
24030;SDS011;12240;51.142;22.486;2022-08-19T14:13:50;10.52;;;3.60;;
24030;SDS011;12240;51.142;22.486;2022-08-19T14:16:18;6.55;;;3.60;;
24030;SDS011;12240;51.142;22.486;2022-08-19T14:18:48;11.20;;;4.17;;
24030;SDS011;12240;51.142;22.486;2022-08-19T14:21:18;11.38;;;4.43;;
24030;SDS011;12240;51.142;22.486;2022-08-19T14:23:50;9.77;;;3.90;;
24030;SDS011;12240;51.142;22.486;2022-08-19T14:26:23;11.60;;;4.20;;
24030;SDS011;12240;51.142;22.486;2022-08-19T14:28:51;8.88;;;4.28;;
24030;SDS011;12240;51.142;22.486;2022-08-19T14:31:19;6.85;;;3.67;;
24030;SDS011;12240;51.142;22.486;2022-08-19T14:33:56;10.20;;;3.90;;
24030;SDS011;12240;51.142;22.486;2022-08-19T14:36:24;12.55;;;4.65;;
24030;SDS011;12240;51.142;22.486;2022-08-19T14:38:53;9.15;;;3.67;;
24030;SDS011;12240;51.142;22.486;2022-08-19T14:41:21;7.85;;;4.10;;
24030;SDS011;12240;51.142;22.486;2022-08-19T14:43:51;9.88;;;4.53;;
24030;SDS011;12240;51.142;22.486;2022-08-19T14:46:23;7.32;;;3.92;;
24030;SDS011;12240;51.142;22.486;2022-08-19T14:48:55;6.45;;;3.85;;
24030;SDS011;12240;51.142;22.486;2022-08-19T14:51:27;12.95;;;4.13;;
24030;SDS011;12240;51.142;22.486;2022-08-19T14:53:55;8.40;;;3.85;;
24030;SDS011;12240;51.142;22.486;2022-08-19T14:56:25;10.35;;;3.90;;
24030;SDS011;12240;51.142;22.486;2022-08-19T14:58:56;10.23;;;4.05;;
24030;SDS011;12240;51.142;22.486;2022-08-19T15:01:28;9.80;;;3.78;;
24030;SDS011;12240;51.142;22.486;2022-08-19T15:03:56;9.05;;;3.40;;
24030;SDS011;12240;51.142;22.486;2022-08-19T15:06:24;6.47;;;3.67;;
24030;SDS011;12240;51.142;22.486;2022-08-19T15:08:53;4.32;;;2.65;;
24030;SDS011;12240;51.142;22.486;2022-08-19T15:11:28;6.40;;;3.22;;
24030;SDS011;12240;51.142;22.486;2022-08-19T15:13:56;8.55;;;3.80;;
24030;SDS011;12240;51.142;22.486;2022-08-19T15:16:25;7.50;;;3.85;;
24030;SDS011;12240;51.142;22.486;2022-08-19T15:18:55;12.05;;;3.67;;
24030;SDS011;12240;51.142;22.486;2022-08-19T15:21:26;12.23;;;3.47;;
24030;SDS011;12240;51.142;22.486;2022-08-19T15:23:57;7.13;;;3.50;;
24030;SDS011;12240;51.142;22.486;2022-08-19T15:26:27;5.00;;;3.22;;
24030;SDS011;12240;51.142;22.486;2022-08-19T15:28:59;10.35;;;3.67;;
24030;SDS011;12240;51.142;22.486;2022-08-19T15:31:29;5.65;;;3.67;;
24030;SDS011;12240;51.142;22.486;2022-08-19T15:34:05;5.45;;;3.63;;